KTOP 152153Z 19011KT 10SM CLR 33/20 A2998 RMK AO2 SLP142 T03330200 $